sensor_id;sensor_type;location;lat;lon;timestamp;P1;P2;P0
29460;PMS7003;16428;47.836;35.106;2023-11-19T00:00:08;18.50;16.50;11.75
29460;PMS7003;16428;47.836;35.106;2023-11-19T00:02:40;12.00;12.00;9.00
29460;PMS7003;16428;47.836;35.106;2023-11-19T00:05:09;14.50;12.00;10.00
29460;PMS7003;16428;47.836;35.106;2023-11-19T00:07:39;15.75;12.00;9.00
29460;PMS7003;16428;47.836;35.106;2023-11-19T00:10:10;23.50;21.50;16.00
29460;PMS7003;16428;47.836;35.106;2023-11-19T00:12:49;24.25;18.75;15.50
29460;PMS7003;16428;47.836;35.106;2023-11-19T00:15:17;31.25;23.75;17.75
29460;PMS7003;16428;47.836;35.106;2023-11-19T00:17:46;13.75;12.50;9.25
29460;PMS7003;16428;47.836;35.106;2023-11-19T00:20:16;24.75;20.25;15.50
29460;PMS7003;16428;47.836;35.106;2023-11-19T00:22:44;19.25;19.25;13.75
29460;PMS7003;16428;47.836;35.106;2023-11-19T00:25:19;17.00;14.25;12.00
29460;PMS7003;16428;47.836;35.106;2023-11-19T00:27:47;16.50;13.25;12.00
29460;PMS7003;16428;47.836;35.106;2023-11-19T00:30:14;34.00;26.50;18.50
29460;PMS7003;16428;47.836;35.106;2023-11-19T00:32:42;28.00;28.00;21.25
29460;PMS7003;16428;47.836;35.106;2023-11-19T00:35:09;37.50;34.25;24.25
29460;PMS7003;16428;47.836;35.106;2023-11-19T00:37:42;22.75;22.00;17.50
29460;PMS7003;16428;47.836;35.106;2023-11-19T00:40:10;35.00;29.50;17.75
29460;PMS7003;16428;47.836;35.106;2023-11-19T00:42:38;25.25;23.50;16.25
29460;PMS7003;16428;47.836;35.106;2023-11-19T00:45:05;58.75;47.00;31.00
29460;PMS7003;16428;47.836;35.106;2023-11-19T00:47:37;40.25;30.50;21.50
29460;PMS7003;16428;47.836;35.106;2023-11-19T00:50:04;25.00;23.00;16.75
29460;PMS7003;16428;47.836;35.106;2023-11-19T00:52:32;46.00;37.25;25.00
29460;PMS7003;16428;47.836;35.106;2023-11-19T00:54:59;14.25;13.25;10.25
29460;PMS7003;16428;47.836;35.106;2023-11-19T00:57:26;54.00;44.50;29.75
29460;PMS7003;16428;47.836;35.106;2023-11-19T00:59:53;36.25;29.75;22.00
29460;PMS7003;16428;47.836;35.106;2023-11-19T01:02:21;52.50;43.25;28.25
29460;PMS7003;16428;47.836;35.106;2023-11-19T01:04:48;15.75;14.75;12.00
29460;PMS7003;16428;47.836;35.106;2023-11-19T01:07:15;22.00;17.50;12.50
29460;PMS7003;16428;47.836;35.106;2023-11-19T01:09:43;17.25;15.00;10.25
29460;PMS7003;16428;47.836;35.106;2023-11-19T01:12:10;12.00;12.00;10.25
29460;PMS7003;16428;47.836;35.106;2023-11-19T01:14:37;21.00;20.00;13.50
29460;PMS7003;16428;47.836;35.106;2023-11-19T01:17:04;17.50;17.00;12.00
29460;PMS7003;16428;47.836;35.106;2023-11-19T01:19:32;23.00;22.75;17.50
29460;PMS7003;16428;47.836;35.106;2023-11-19T01:21:59;23.00;23.00;16.75
29460;PMS7003;16428;47.836;35.106;2023-11-19T01:24:26;30.25;26.00;18.75
29460;PMS7003;16428;47.836;35.106;2023-11-19T01:26:55;31.00;26.00;19.75
29460;PMS7003;16428;47.836;35.106;2023-11-19T01:29:24;53.75;43.25;28.75
29460;PMS7003;16428;47.836;35.106;2023-11-19T01:31:51;74.00;56.33;36.33
29460;PMS7003;16428;47.836;35.106;2023-11-19T01:34:18;73.33;57.00;36.00
29460;PMS7003;16428;47.836;35.106;2023-11-19T01:36:46;72.67;57.33;35.67
29460;PMS7003;16428;47.836;35.106;2023-11-19T01:39:15;76.00;57.33;35.33
29460;PMS7003;16428;47.836;35.106;2023-11-19T01:41:43;65.00;46.50;31.00
29460;PMS7003;16428;47.836;35.106;2023-11-19T01:44:10;81.00;57.33;36.67
29460;PMS7003;16428;47.836;35.106;2023-11-19T01:46:43;57.50;41.50;28.25
29460;PMS7003;16428;47.836;35.106;2023-11-19T01:49:15;73.33;54.00;36.00
29460;PMS7003;16428;47.836;35.106;2023-11-19T01:51:44;62.50;51.25;34.00
29460;PMS7003;16428;47.836;35.106;2023-11-19T01:54:13;72.67;55.33;36.67
29460;PMS7003;16428;47.836;35.106;2023-11-19T01:56:42;75.33;56.67;38.00
29460;PMS7003;16428;47.836;35.106;2023-11-19T01:59:10;60.25;47.50;30.25
29460;PMS7003;16428;47.836;35.106;2023-11-19T02:01:40;39.75;36.00;26.00
29460;PMS7003;16428;47.836;35.106;2023-11-19T02:04:09;72.67;56.00;36.67
29460;PMS7003;16428;47.836;35.106;2023-11-19T02:06:39;66.33;51.67;35.33
29460;PMS7003;16428;47.836;35.106;2023-11-19T02:09:09;89.33;76.67;45.33
29460;PMS7003;16428;47.836;35.106;2023-11-19T02:11:36;67.33;52.67;35.00
29460;PMS7003;16428;47.836;35.106;2023-11-19T02:14:06;54.25;44.50;32.50
29460;PMS7003;16428;47.836;35.106;2023-11-19T02:16:33;70.67;54.00;35.00
29460;PMS7003;16428;47.836;35.106;2023-11-19T02:19:01;70.00;54.33;38.00
29460;PMS7003;16428;47.836;35.106;2023-11-19T02:21:29;34.25;16.75;0.00
29460;PMS7003;16428;47.836;35.106;2023-11-19T02:23:56;64.00;49.00;34.67
29460;PMS7003;16428;47.836;35.106;2023-11-19T02:26:37;65.67;51.33;34.00
29460;PMS7003;16428;47.836;35.106;2023-11-19T02:29:07;66.33;51.67;33.67
29460;PMS7003;16428;47.836;35.106;2023-11-19T02:31:34;47.75;36.50;25.25
29460;PMS7003;16428;47.836;35.106;2023-11-19T02:34:02;61.25;49.00;31.25
29460;PMS7003;16428;47.836;35.106;2023-11-19T02:36:29;71.00;53.33;35.33
29460;PMS7003;16428;47.836;35.106;2023-11-19T02:38:56;82.67;73.00;47.33
29460;PMS7003;16428;47.836;35.106;2023-11-19T02:41:24;70.00;54.00;33.00
29460;PMS7003;16428;47.836;35.106;2023-11-19T02:43:51;38.50;34.50;24.75
29460;PMS7003;16428;47.836;35.106;2023-11-19T02:46:17;41.25;33.50;22.25
29460;PMS7003;16428;47.836;35.106;2023-11-19T02:48:46;67.50;49.25;33.50
29460;PMS7003;16428;47.836;35.106;2023-11-19T02:51:13;46.25;38.50;26.00
29460;PMS7003;16428;47.836;35.106;2023-11-19T02:53:40;66.50;51.50;33.25
29460;PMS7003;16428;47.836;35.106;2023-11-19T02:56:07;55.75;42.50;28.25
29460;PMS7003;16428;47.836;35.106;2023-11-19T02:58:52;53.50;42.00;27.00
29460;PMS7003;16428;47.836;35.106;2023-11-19T03:01:26;49.75;38.50;26.75
29460;PMS7003;16428;47.836;35.106;2023-11-19T03:04:01;54.25;45.25;30.00
29460;PMS7003;16428;47.836;35.106;2023-11-19T03:06:30;50.50;39.75;26.25
29460;PMS7003;16428;47.836;35.106;2023-11-19T03:08:58;36.00;28.25;22.00
29460;PMS7003;16428;47.836;35.106;2023-11-19T03:11:32;31.25;25.50;19.75
29460;PMS7003;16428;47.836;35.106;2023-11-19T03:13:59;73.00;55.00;35.00
29460;PMS7003;16428;47.836;35.106;2023-11-19T03:16:26;47.75;42.00;27.25
29460;PMS7003;16428;47.836;35.106;2023-11-19T03:18:53;40.75;34.75;22.00
29460;PMS7003;16428;47.836;35.106;2023-11-19T03:21:30;53.75;42.00;29.25
29460;PMS7003;16428;47.836;35.106;2023-11-19T03:23:58;56.50;46.00;30.50
29460;PMS7003;16428;47.836;35.106;2023-11-19T03:26:28;52.75;40.00;25.00
29460;PMS7003;16428;47.836;35.106;2023-11-19T03:28:55;59.25;45.25;29.50
29460;PMS7003;16428;47.836;35.106;2023-11-19T03:31:23;54.75;41.00;29.25
29460;PMS7003;16428;47.836;35.106;2023-11-19T03:33:51;68.00;53.50;36.50
29460;PMS7003;16428;47.836;35.106;2023-11-19T03:36:21;80.67;61.33;40.00
29460;PMS7003;16428;47.836;35.106;2023-11-19T03:38:49;97.33;87.67;55.00
29460;PMS7003;16428;47.836;35.106;2023-11-19T03:41:16;83.33;69.00;43.00
29460;PMS7003;16428;47.836;35.106;2023-11-19T03:43:43;74.00;60.33;41.67
29460;PMS7003;16428;47.836;35.106;2023-11-19T03:46:17;86.33;81.00;46.67
29460;PMS7003;16428;47.836;35.106;2023-11-19T03:48:48;95.67;87.00;58.67
29460;PMS7003;16428;47.836;35.106;2023-11-19T03:51:16;93.67;74.67;47.33
29460;PMS7003;16428;47.836;35.106;2023-11-19T03:53:45;84.67;64.00;41.00
29460;PMS7003;16428;47.836;35.106;2023-11-19T03:56:12;80.67;65.33;44.33
29460;PMS7003;16428;47.836;35.106;2023-11-19T03:58:39;95.00;81.00;52.67
29460;PMS7003;16428;47.836;35.106;2023-11-19T04:01:10;91.00;80.67;48.67
29460;PMS7003;16428;47.836;35.106;2023-11-19T04:03:41;98.00;80.00;52.33
29460;PMS7003;16428;47.836;35.106;2023-11-19T04:06:11;86.67;75.67;49.00
29460;PMS7003;16428;47.836;35.106;2023-11-19T04:08:38;85.00;68.33;46.00
29460;PMS7003;16428;47.836;35.106;2023-11-19T04:11:05;102.33;85.33;54.67
29460;PMS7003;16428;47.836;35.106;2023-11-19T04:13:32;93.67;76.00;45.67
29460;PMS7003;16428;47.836;35.106;2023-11-19T04:15:59;90.33;75.67;45.00
29460;PMS7003;16428;47.836;35.106;2023-11-19T04:18:26;100.33;90.67;52.33
29460;PMS7003;16428;47.836;35.106;2023-11-19T04:20:53;102.00;90.67;56.33
29460;PMS7003;16428;47.836;35.106;2023-11-19T04:23:20;104.33;86.33;53.33
29460;PMS7003;16428;47.836;35.106;2023-11-19T04:25:47;111.00;98.67;67.67
29460;PMS7003;16428;47.836;35.106;2023-11-19T04:28:14;101.33;86.00;58.00
29460;PMS7003;16428;47.836;35.106;2023-11-19T04:30:41;87.33;74.33;47.67
29460;PMS7003;16428;47.836;35.106;2023-11-19T04:33:08;107.33;95.33;55.00
29460;PMS7003;16428;47.836;35.106;2023-11-19T04:35:36;95.67;84.00;50.00
29460;PMS7003;16428;47.836;35.106;2023-11-19T04:38:03;109.33;90.67;54.00
29460;PMS7003;16428;47.836;35.106;2023-11-19T04:40:30;93.33;77.00;58.33
29460;PMS7003;16428;47.836;35.106;2023-11-19T04:42:57;85.67;78.00;44.00
29460;PMS7003;16428;47.836;35.106;2023-11-19T04:45:24;85.33;71.67;43.00
29460;PMS7003;16428;47.836;35.106;2023-11-19T04:47:51;87.33;73.33;46.00
29460;PMS7003;16428;47.836;35.106;2023-11-19T04:50:18;85.33;71.33;46.00
29460;PMS7003;16428;47.836;35.106;2023-11-19T04:52:45;79.33;60.00;38.67
29460;PMS7003;16428;47.836;35.106;2023-11-19T04:55:12;75.00;58.67;38.00
29460;PMS7003;16428;47.836;35.106;2023-11-19T04:57:41;70.50;52.50;35.00
29460;PMS7003;16428;47.836;35.106;2023-11-19T05:00:08;71.25;56.00;37.50
29460;PMS7003;16428;47.836;35.106;2023-11-19T05:02:40;60.25;49.00;31.75
29460;PMS7003;16428;47.836;35.106;2023-11-19T05:05:08;71.50;53.25;36.00
29460;PMS7003;16428;47.836;35.106;2023-11-19T05:07:36;74.50;56.75;36.50
29460;PMS7003;16428;47.836;35.106;2023-11-19T05:10:03;74.75;54.00;36.00
29460;PMS7003;16428;47.836;35.106;2023-11-19T05:12:32;64.75;49.25;29.25
29460;PMS7003;16428;47.836;35.106;2023-11-19T05:15:00;67.25;53.50;34.00
29460;PMS7003;16428;47.836;35.106;2023-11-19T05:17:27;58.00;45.00;30.00
29460;PMS7003;16428;47.836;35.106;2023-11-19T05:19:54;71.75;55.50;37.00
29460;PMS7003;16428;47.836;35.106;2023-11-19T05:22:22;52.25;40.25;27.75
29460;PMS7003;16428;47.836;35.106;2023-11-19T05:24:49;58.25;44.50;31.00
29460;PMS7003;16428;47.836;35.106;2023-11-19T05:27:17;45.25;31.50;25.75
29460;PMS7003;16428;47.836;35.106;2023-11-19T05:29:44;62.75;48.75;31.25
29460;PMS7003;16428;47.836;35.106;2023-11-19T05:32:11;57.50;41.75;28.75
29460;PMS7003;16428;47.836;35.106;2023-11-19T05:34:38;63.25;51.25;32.75
29460;PMS7003;16428;47.836;35.106;2023-11-19T05:37:18;73.75;56.25;38.00
29460;PMS7003;16428;47.836;35.106;2023-11-19T05:39:45;64.50;53.00;36.00
29460;PMS7003;16428;47.836;35.106;2023-11-19T05:42:12;71.75;54.50;39.00
29460;PMS7003;16428;47.836;35.106;2023-11-19T05:44:39;71.00;56.50;38.25
29460;PMS7003;16428;47.836;35.106;2023-11-19T05:47:07;77.50;59.50;38.25
29460;PMS7003;16428;47.836;35.106;2023-11-19T05:49:36;73.25;55.25;37.00
29460;PMS7003;16428;47.836;35.106;2023-11-19T05:52:03;53.75;44.75;30.00
29460;PMS7003;16428;47.836;35.106;2023-11-19T05:54:34;53.25;43.75;29.75
29460;PMS7003;16428;47.836;35.106;2023-11-19T05:57:04;69.75;55.75;33.75
29460;PMS7003;16428;47.836;35.106;2023-11-19T05:59:32;68.50;51.00;34.00
29460;PMS7003;16428;47.836;35.106;2023-11-19T06:01:59;64.00;50.00;32.50
29460;PMS7003;16428;47.836;35.106;2023-11-19T06:04:26;70.25;55.75;37.00
29460;PMS7003;16428;47.836;35.106;2023-11-19T06:06:53;68.50;51.00;34.75
29460;PMS7003;16428;47.836;35.106;2023-11-19T06:09:24;51.25;41.50;29.25
29460;PMS7003;16428;47.836;35.106;2023-11-19T06:11:51;56.00;40.25;28.75
29460;PMS7003;16428;47.836;35.106;2023-11-19T06:14:19;54.75;44.75;30.50
29460;PMS7003;16428;47.836;35.106;2023-11-19T06:16:46;52.00;40.25;27.50
29460;PMS7003;16428;47.836;35.106;2023-11-19T06:19:13;47.75;38.75;26.50
29460;PMS7003;16428;47.836;35.106;2023-11-19T06:21:40;39.50;32.50;23.25
29460;PMS7003;16428;47.836;35.106;2023-11-19T06:24:08;33.25;28.25;20.00
29460;PMS7003;16428;47.836;35.106;2023-11-19T06:26:35;41.00;30.50;21.50
29460;PMS7003;16428;47.836;35.106;2023-11-19T06:29:02;51.25;40.50;25.25
29460;PMS7003;16428;47.836;35.106;2023-11-19T06:31:29;48.50;37.75;25.50
29460;PMS7003;16428;47.836;35.106;2023-11-19T06:33:56;35.25;31.25;22.25
29460;PMS7003;16428;47.836;35.106;2023-11-19T06:36:24;41.50;36.25;25.75
29460;PMS7003;16428;47.836;35.106;2023-11-19T06:38:51;35.25;28.25;21.50
29460;PMS7003;16428;47.836;35.106;2023-11-19T06:41:18;23.50;21.25;11.25
29460;PMS7003;16428;47.836;35.106;2023-11-19T06:43:45;37.50;32.50;22.50
29460;PMS7003;16428;47.836;35.106;2023-11-19T06:46:16;31.25;25.25;16.25
29460;PMS7003;16428;47.836;35.106;2023-11-19T06:48:44;22.50;21.50;16.25
29460;PMS7003;16428;47.836;35.106;2023-11-19T06:51:11;21.25;20.25;14.75
29460;PMS7003;16428;47.836;35.106;2023-11-19T06:53:39;26.75;21.00;16.00
29460;PMS7003;16428;47.836;35.106;2023-11-19T06:56:28;19.00;15.75;13.75
29460;PMS7003;16428;47.836;35.106;2023-11-19T06:58:54;22.75;20.50;15.00
29460;PMS7003;16428;47.836;35.106;2023-11-19T07:01:21;27.50;21.25;15.00
29460;PMS7003;16428;47.836;35.106;2023-11-19T07:03:48;27.50;22.50;18.00
29460;PMS7003;16428;47.836;35.106;2023-11-19T07:06:16;34.75;23.75;19.00
29460;PMS7003;16428;47.836;35.106;2023-11-19T07:08:43;17.00;17.00;14.00
29460;PMS7003;16428;47.836;35.106;2023-11-19T07:11:14;29.25;23.75;17.25
29460;PMS7003;16428;47.836;35.106;2023-11-19T07:13:43;25.25;22.00;17.00
29460;PMS7003;16428;47.836;35.106;2023-11-19T07:16:13;24.25;23.75;18.50
29460;PMS7003;16428;47.836;35.106;2023-11-19T07:18:41;27.25;22.25;18.25
29460;PMS7003;16428;47.836;35.106;2023-11-19T07:21:10;22.75;20.25;16.00
29460;PMS7003;16428;47.836;35.106;2023-11-19T07:23:37;17.75;17.25;13.25
29460;PMS7003;16428;47.836;35.106;2023-11-19T07:26:05;17.25;17.25;14.75
29460;PMS7003;16428;47.836;35.106;2023-11-19T07:28:35;22.75;20.75;14.75
29460;PMS7003;16428;47.836;35.106;2023-11-19T07:31:02;26.50;26.50;16.75
29460;PMS7003;16428;47.836;35.106;2023-11-19T07:33:30;22.25;19.75;15.75
29460;PMS7003;16428;47.836;35.106;2023-11-19T07:35:57;27.75;18.75;13.25
29460;PMS7003;16428;47.836;35.106;2023-11-19T07:38:24;24.75;21.25;15.50
29460;PMS7003;16428;47.836;35.106;2023-11-19T07:40:51;23.50;20.50;14.00
29460;PMS7003;16428;47.836;35.106;2023-11-19T07:43:22;23.00;22.00;17.25
29460;PMS7003;16428;47.836;35.106;2023-11-19T07:45:49;21.75;19.00;13.25
29460;PMS7003;16428;47.836;35.106;2023-11-19T07:48:16;21.75;21.50;14.25
29460;PMS7003;16428;47.836;35.106;2023-11-19T07:50:49;24.00;21.75;16.25
29460;PMS7003;16428;47.836;35.106;2023-11-19T07:53:17;27.25;21.50;14.50
29460;PMS7003;16428;47.836;35.106;2023-11-19T07:55:44;25.00;22.25;17.75
29460;PMS7003;16428;47.836;35.106;2023-11-19T07:58:11;28.75;26.50;19.25
29460;PMS7003;16428;47.836;35.106;2023-11-19T08:00:39;33.75;31.75;22.25
29460;PMS7003;16428;47.836;35.106;2023-11-19T08:03:07;26.50;26.50;21.00
29460;PMS7003;16428;47.836;35.106;2023-11-19T08:05:34;30.00;23.75;19.25
29460;PMS7003;16428;47.836;35.106;2023-11-19T08:08:02;35.25;30.00;21.25
29460;PMS7003;16428;47.836;35.106;2023-11-19T08:10:29;53.25;41.25;28.25
29460;PMS7003;16428;47.836;35.106;2023-11-19T08:12:56;40.00;34.50;22.25
29460;PMS7003;16428;47.836;35.106;2023-11-19T08:15:23;52.00;42.25;27.50
29460;PMS7003;16428;47.836;35.106;2023-11-19T08:17:53;64.25;49.50;32.75
29460;PMS7003;16428;47.836;35.106;2023-11-19T08:20:20;57.50;40.75;28.00
29460;PMS7003;16428;47.836;35.106;2023-11-19T08:22:47;46.75;38.25;26.25
29460;PMS7003;16428;47.836;35.106;2023-11-19T08:25:15;49.50;35.50;23.00
29460;PMS7003;16428;47.836;35.106;2023-11-19T08:27:42;32.50;31.75;19.50
29460;PMS7003;16428;47.836;35.106;2023-11-19T08:30:09;61.50;45.25;30.00
29460;PMS7003;16428;47.836;35.106;2023-11-19T08:32:37;48.75;40.25;27.75
29460;PMS7003;16428;47.836;35.106;2023-11-19T08:35:04;37.00;34.50;23.50
29460;PMS7003;16428;47.836;35.106;2023-11-19T08:37:33;62.75;51.75;34.25
29460;PMS7003;16428;47.836;35.106;2023-11-19T08:40:03;56.75;45.75;29.25
29460;PMS7003;16428;47.836;35.106;2023-11-19T08:42:31;69.50;51.75;34.50
29460;PMS7003;16428;47.836;35.106;2023-11-19T08:44:58;61.00;46.00;30.75
29460;PMS7003;16428;47.836;35.106;2023-11-19T08:47:25;56.50;47.00;31.00
29460;PMS7003;16428;47.836;35.106;2023-11-19T08:49:52;68.25;55.00;38.50
29460;PMS7003;16428;47.836;35.106;2023-11-19T08:52:23;71.25;56.00;38.25
29460;PMS7003;16428;47.836;35.106;2023-11-19T08:54:50;72.50;56.75;40.25
29460;PMS7003;16428;47.836;35.106;2023-11-19T08:57:17;76.00;57.50;38.00
29460;PMS7003;16428;47.836;35.106;2023-11-19T08:59:44;47.25;40.25;27.00
29460;PMS7003;16428;47.836;35.106;2023-11-19T09:02:12;52.25;38.75;25.50
29460;PMS7003;16428;47.836;35.106;2023-11-19T09:04:40;53.50;41.50;28.75
29460;PMS7003;16428;47.836;35.106;2023-11-19T09:07:08;54.25;40.75;27.00
29460;PMS7003;16428;47.836;35.106;2023-11-19T09:09:38;62.75;51.75;35.25
29460;PMS7003;16428;47.836;35.106;2023-11-19T09:12:05;57.50;49.00;32.75
29460;PMS7003;16428;47.836;35.106;2023-11-19T09:14:32;46.50;40.00;27.75
29460;PMS7003;16428;47.836;35.106;2023-11-19T09:16:59;57.00;42.75;29.50
29460;PMS7003;16428;47.836;35.106;2023-11-19T09:19:26;56.00;46.50;31.75
29460;PMS7003;16428;47.836;35.106;2023-11-19T09:21:54;49.50;37.75;26.75
29460;PMS7003;16428;47.836;35.106;2023-11-19T09:24:21;54.25;41.50;26.00
29460;PMS7003;16428;47.836;35.106;2023-11-19T09:26:48;53.25;46.25;31.25
29460;PMS7003;16428;47.836;35.106;2023-11-19T09:29:15;37.50;33.75;23.25
29460;PMS7003;16428;47.836;35.106;2023-11-19T09:31:43;70.25;55.25;36.00
29460;PMS7003;16428;47.836;35.106;2023-11-19T09:34:10;47.75;40.25;26.50
29460;PMS7003;16428;47.836;35.106;2023-11-19T09:36:37;49.50;40.00;27.00
29460;PMS7003;16428;47.836;35.106;2023-11-19T09:39:05;52.25;43.75;28.00
29460;PMS7003;16428;47.836;35.106;2023-11-19T09:41:34;39.75;37.50;26.25
29460;PMS7003;16428;47.836;35.106;2023-11-19T09:44:02;41.50;36.25;24.50
29460;PMS7003;16428;47.836;35.106;2023-11-19T09:46:29;45.75;37.25;27.00
29460;PMS7003;16428;47.836;35.106;2023-11-19T09:48:57;36.00;33.00;22.75
29460;PMS7003;16428;47.836;35.106;2023-11-19T09:51:26;26.25;21.25;9.75
29460;PMS7003;16428;47.836;35.106;2023-11-19T09:53:54;27.00;25.25;18.00
29460;PMS7003;16428;47.836;35.106;2023-11-19T09:56:21;19.50;18.75;13.75
29460;PMS7003;16428;47.836;35.106;2023-11-19T09:58:49;16.50;16.25;12.00
29460;PMS7003;16428;47.836;35.106;2023-11-19T10:01:16;24.50;18.00;14.00
29460;PMS7003;16428;47.836;35.106;2023-11-19T10:03:55;19.00;19.00;15.00
29460;PMS7003;16428;47.836;35.106;2023-11-19T10:06:23;29.50;29.50;19.75
29460;PMS7003;16428;47.836;35.106;2023-11-19T10:08:53;34.75;30.00;21.75
29460;PMS7003;16428;47.836;35.106;2023-11-19T10:11:20;47.25;41.75;28.50
29460;PMS7003;16428;47.836;35.106;2023-11-19T10:13:47;24.75;22.75;17.00
29460;PMS7003;16428;47.836;35.106;2023-11-19T10:16:15;28.75;24.75;20.25
29460;PMS7003;16428;47.836;35.106;2023-11-19T10:18:47;49.75;41.00;25.00
29460;PMS7003;16428;47.836;35.106;2023-11-19T10:21:17;65.25;52.75;33.75
29460;PMS7003;16428;47.836;35.106;2023-11-19T10:23:52;73.25;56.00;38.25
29460;PMS7003;16428;47.836;35.106;2023-11-19T10:26:20;72.00;56.00;36.00
29460;PMS7003;16428;47.836;35.106;2023-11-19T10:28:48;85.25;65.50;41.75
29460;PMS7003;16428;47.836;35.106;2023-11-19T10:31:16;69.75;53.50;35.00
29460;PMS7003;16428;47.836;35.106;2023-11-19T10:33:44;55.00;47.75;32.50
29460;PMS7003;16428;47.836;35.106;2023-11-19T10:36:12;54.25;42.00;30.00
29460;PMS7003;16428;47.836;35.106;2023-11-19T10:38:40;63.75;50.75;31.75
29460;PMS7003;16428;47.836;35.106;2023-11-19T10:41:27;82.00;70.25;43.75
29460;PMS7003;16428;47.836;35.106;2023-11-19T10:43:58;75.25;57.25;39.00
29460;PMS7003;16428;47.836;35.106;2023-11-19T10:46:36;83.75;66.00;44.75
29460;PMS7003;16428;47.836;35.106;2023-11-19T10:49:07;91.00;69.67;47.67
29460;PMS7003;16428;47.836;35.106;2023-11-19T10:51:35;76.25;59.75;38.75
29460;PMS7003;16428;47.836;35.106;2023-11-19T10:54:05;83.25;64.50;43.50
29460;PMS7003;16428;47.836;35.106;2023-11-19T10:56:33;113.00;97.00;59.33
29460;PMS7003;16428;47.836;35.106;2023-11-19T10:59:01;85.67;73.67;45.67
29460;PMS7003;16428;47.836;35.106;2023-11-19T11:01:48;90.00;66.67;42.67
29460;PMS7003;16428;47.836;35.106;2023-11-19T11:04:21;92.00;71.67;48.33
29460;PMS7003;16428;47.836;35.106;2023-11-19T11:06:51;84.25;67.50;48.25
29460;PMS7003;16428;47.836;35.106;2023-11-19T11:09:18;79.25;62.00;42.50
29460;PMS7003;16428;47.836;35.106;2023-11-19T11:11:46;95.00;79.00;53.00
29460;PMS7003;16428;47.836;35.106;2023-11-19T11:14:14;87.33;71.00;48.67
29460;PMS7003;16428;47.836;35.106;2023-11-19T11:16:46;78.25;61.50;40.25
29460;PMS7003;16428;47.836;35.106;2023-11-19T11:19:16;84.00;70.75;45.25
29460;PMS7003;16428;47.836;35.106;2023-11-19T11:21:46;79.25;62.25;43.50
29460;PMS7003;16428;47.836;35.106;2023-11-19T11:32:34;88.67;83.00;57.33
29460;PMS7003;16428;47.836;35.106;2023-11-19T11:38:01;111.33;98.00;58.33
29460;PMS7003;16428;47.836;35.106;2023-11-19T11:40:31;84.00;76.00;52.00
29460;PMS7003;16428;47.836;35.106;2023-11-19T11:42:58;86.00;69.33;44.33
29460;PMS7003;16428;47.836;35.106;2023-11-19T11:45:35;103.33;89.00;55.33
29460;PMS7003;16428;47.836;35.106;2023-11-19T11:48:10;91.67;87.00;54.00
29460;PMS7003;16428;47.836;35.106;2023-11-19T11:50:56;107.33;90.67;59.33
29460;PMS7003;16428;47.836;35.106;2023-11-19T11:53:25;96.00;87.33;55.00
29460;PMS7003;16428;47.836;35.106;2023-11-19T11:55:53;108.67;90.33;59.00
29460;PMS7003;16428;47.836;35.106;2023-11-19T11:58:26;80.00;60.00;40.50
29460;PMS7003;16428;47.836;35.106;2023-11-19T12:00:58;60.25;48.50;33.75
29460;PMS7003;16428;47.836;35.106;2023-11-19T12:03:28;67.75;51.25;32.50
29460;PMS7003;16428;47.836;35.106;2023-11-19T12:05:57;65.00;49.25;33.25
29460;PMS7003;16428;47.836;35.106;2023-11-19T12:08:26;12.25;5.00;5.00
29460;PMS7003;16428;47.836;35.106;2023-11-19T12:10:56;65.50;51.25;30.50
29460;PMS7003;16428;47.836;35.106;2023-11-19T12:16:25;69.50;51.75;35.50
29460;PMS7003;16428;47.836;35.106;2023-11-19T12:18:55;70.75;55.00;38.00
29460;PMS7003;16428;47.836;35.106;2023-11-19T12:21:30;82.00;59.25;37.00
29460;PMS7003;16428;47.836;35.106;2023-11-19T12:23:59;55.75;42.00;27.25
29460;PMS7003;16428;47.836;35.106;2023-11-19T12:26:32;75.75;57.25;37.50
29460;PMS7003;16428;47.836;35.106;2023-11-19T12:29:01;43.25;39.50;26.00
29460;PMS7003;16428;47.836;35.106;2023-11-19T12:31:34;52.00;38.00;24.75
29460;PMS7003;16428;47.836;35.106;2023-11-19T12:34:06;48.00;37.75;23.50
29460;PMS7003;16428;47.836;35.106;2023-11-19T12:36:39;56.00;46.75;30.75
29460;PMS7003;16428;47.836;35.106;2023-11-19T12:39:08;51.50;39.75;27.75
29460;PMS7003;16428;47.836;35.106;2023-11-19T12:41:49;72.00;55.75;35.00
29460;PMS7003;16428;47.836;35.106;2023-11-19T12:44:18;66.25;50.50;33.75
29460;PMS7003;16428;47.836;35.106;2023-11-19T12:46:45;89.50;67.75;43.50
29460;PMS7003;16428;47.836;35.106;2023-11-19T12:49:13;80.25;59.75;39.50
29460;PMS7003;16428;47.836;35.106;2023-11-19T12:51:40;70.50;54.00;37.00
29460;PMS7003;16428;47.836;35.106;2023-11-19T12:54:07;78.50;58.25;36.75
29460;PMS7003;16428;47.836;35.106;2023-11-19T12:56:35;81.00;61.25;38.25
29460;PMS7003;16428;47.836;35.106;2023-11-19T12:59:11;74.50;55.50;36.00
29460;PMS7003;16428;47.836;35.106;2023-11-19T13:01:39;68.50;50.25;33.00
29460;PMS7003;16428;47.836;35.106;2023-11-19T13:04:18;76.75;58.50;38.25
29460;PMS7003;16428;47.836;35.106;2023-11-19T13:06:46;40.00;26.00;5.75
29460;PMS7003;16428;47.836;35.106;2023-11-19T13:09:31;86.67;75.00;46.33
29460;PMS7003;16428;47.836;35.106;2023-11-19T13:11:59;104.00;86.33;54.00
29460;PMS7003;16428;47.836;35.106;2023-11-19T13:14:38;81.67;65.00;41.00
29460;PMS7003;16428;47.836;35.106;2023-11-19T13:17:06;72.50;57.25;38.75
29460;PMS7003;16428;47.836;35.106;2023-11-19T13:19:34;62.75;50.50;34.00
29460;PMS7003;16428;47.836;35.106;2023-11-19T13:22:02;47.50;39.75;27.00
29460;PMS7003;16428;47.836;35.106;2023-11-19T13:24:29;46.75;37.00;25.00
29460;PMS7003;16428;47.836;35.106;2023-11-19T13:26:57;50.25;42.50;30.50
29460;PMS7003;16428;47.836;35.106;2023-11-19T13:29:25;57.00;46.25;30.25
29460;PMS7003;16428;47.836;35.106;2023-11-19T13:31:57;67.50;52.50;34.50
29460;PMS7003;16428;47.836;35.106;2023-11-19T13:34:26;50.50;41.50;29.00
29460;PMS7003;16428;47.836;35.106;2023-11-19T13:36:54;48.50;41.25;28.50
29460;PMS7003;16428;47.836;35.106;2023-11-19T13:39:22;33.75;30.75;23.50
29460;PMS7003;16428;47.836;35.106;2023-11-19T13:41:54;31.75;30.25;20.75
29460;PMS7003;16428;47.836;35.106;2023-11-19T13:44:39;17.75;17.75;13.50
29460;PMS7003;16428;47.836;35.106;2023-11-19T13:47:06;18.50;12.25;9.50
29460;PMS7003;16428;47.836;35.106;2023-11-19T13:49:36;13.25;10.50;9.25
29460;PMS7003;16428;47.836;35.106;2023-11-19T13:52:04;11.75;11.75;9.50
29460;PMS7003;16428;47.836;35.106;2023-11-19T13:54:31;16.50;12.25;9.25
29460;PMS7003;16428;47.836;35.106;2023-11-19T13:56:59;11.75;9.75;6.50